Lowville, New York
Current Conditions -  °F | °C
As of 12:58 AM on Wednesday 26 Nov 2014 (Local Time) from KGTB Reporting Station
Overcast Overcast  
Wind Chill: 30°   Ceiling: 3500
Heat Index: 35°   Visibility: 10mi
Dew Point: 26°   Wind: 6mph
Humidity: 71%   Direction: 280°W
Pressure: 30.17"   Gusts: NA
Location:  43.79°N, 75.49°W
Report Text: KGTB 260558Z AUTO 28005KT 10SM BKN035 OVC042 02/M03 A3017 RMK AO2 SLP223 60000 T00161031 10019 20011 51018
Loading
Personal Weather Stations






























Interactive Weather Map New forecast layout! Learn more

10-Day Weather Forecast

Advertisements
Track Severe Weather on mobile